sensor_id;sensor_type;location;lat;lon;timestamp;P1;durP1;ratioP1;P2;durP2;ratioP2
41077;SDS011;26823;42.662;23.352;2022-11-25T00:00:20;1.95;;;1.75;;
41077;SDS011;26823;42.662;23.352;2022-11-25T00:02:45;6.18;;;2.70;;
41077;SDS011;26823;42.662;23.352;2022-11-25T00:05:11;4.97;;;2.13;;
41077;SDS011;26823;42.662;23.352;2022-11-25T00:07:36;2.72;;;2.25;;
41077;SDS011;26823;42.662;23.352;2022-11-25T00:10:03;2.55;;;2.00;;
41077;SDS011;26823;42.662;23.352;2022-11-25T00:12:29;4.72;;;2.50;;
41077;SDS011;26823;42.662;23.352;2022-11-25T00:14:55;2.35;;;2.15;;
41077;SDS011;26823;42.662;23.352;2022-11-25T00:17:20;3.05;;;2.38;;
41077;SDS011;26823;42.662;23.352;2022-11-25T00:19:46;2.03;;;1.80;;
41077;SDS011;26823;42.662;23.352;2022-11-25T00:22:13;2.28;;;1.80;;
41077;SDS011;26823;42.662;23.352;2022-11-25T00:24:39;3.25;;;2.60;;
41077;SDS011;26823;42.662;23.352;2022-11-25T00:27:04;5.75;;;2.30;;
41077;SDS011;26823;42.662;23.352;2022-11-25T00:29:30;3.63;;;2.40;;
41077;SDS011;26823;42.662;23.352;2022-11-25T00:31:55;3.70;;;2.10;;
41077;SDS011;26823;42.662;23.352;2022-11-25T00:34:21;4.60;;;2.38;;
41077;SDS011;26823;42.662;23.352;2022-11-25T00:36:46;4.63;;;2.33;;
41077;SDS011;26823;42.662;23.352;2022-11-25T00:39:13;3.80;;;2.60;;
41077;SDS011;26823;42.662;23.352;2022-11-25T00:41:39;3.20;;;2.90;;
41077;SDS011;26823;42.662;23.352;2022-11-25T00:44:24;4.65;;;3.00;;
41077;SDS011;26823;42.662;23.352;2022-11-25T00:47:13;4.05;;;2.90;;
41077;SDS011;26823;42.662;23.352;2022-11-25T00:49:39;6.57;;;3.00;;
41077;SDS011;26823;42.662;23.352;2022-11-25T00:52:06;4.60;;;2.58;;
41077;SDS011;26823;42.662;23.352;2022-11-25T00:54:33;4.32;;;3.17;;
41077;SDS011;26823;42.662;23.352;2022-11-25T00:56:58;3.13;;;2.33;;
41077;SDS011;26823;42.662;23.352;2022-11-25T00:59:24;6.07;;;3.08;;
41077;SDS011;26823;42.662;23.352;2022-11-25T01:01:50;3.35;;;2.60;;
41077;SDS011;26823;42.662;23.352;2022-11-25T01:04:22;7.57;;;3.00;;
41077;SDS011;26823;42.662;23.352;2022-11-25T01:06:47;5.20;;;2.28;;
41077;SDS011;26823;42.662;23.352;2022-11-25T01:09:13;3.40;;;2.70;;
41077;SDS011;26823;42.662;23.352;2022-11-25T01:11:39;5.15;;;2.65;;
41077;SDS011;26823;42.662;23.352;2022-11-25T01:14:04;3.33;;;2.88;;
41077;SDS011;26823;42.662;23.352;2022-11-25T01:16:30;3.65;;;3.03;;
41077;SDS011;26823;42.662;23.352;2022-11-25T01:18:57;4.80;;;2.60;;
41077;SDS011;26823;42.662;23.352;2022-11-25T01:21:24;2.97;;;2.70;;
41077;SDS011;26823;42.662;23.352;2022-11-25T01:23:51;2.95;;;2.60;;
41077;SDS011;26823;42.662;23.352;2022-11-25T01:26:18;3.75;;;2.55;;
41077;SDS011;26823;42.662;23.352;2022-11-25T01:28:45;3.08;;;2.72;;
41077;SDS011;26823;42.662;23.352;2022-11-25T01:31:15;3.08;;;2.70;;
41077;SDS011;26823;42.662;23.352;2022-11-25T01:33:43;2.92;;;2.55;;
41077;SDS011;26823;42.662;23.352;2022-11-25T01:36:12;4.28;;;2.60;;
41077;SDS011;26823;42.662;23.352;2022-11-25T01:38:39;2.70;;;2.25;;
41077;SDS011;26823;42.662;23.352;2022-11-25T01:41:06;2.70;;;2.28;;
41077;SDS011;26823;42.662;23.352;2022-11-25T01:43:33;3.30;;;2.47;;
41077;SDS011;26823;42.662;23.352;2022-11-25T01:49:00;2.53;;;2.33;;
41077;SDS011;26823;42.662;23.352;2022-11-25T01:54:28;2.30;;;2.05;;
41077;SDS011;26823;42.662;23.352;2022-11-25T01:57:05;2.10;;;1.80;;
41077;SDS011;26823;42.662;23.352;2022-11-25T01:59:52;2.05;;;1.85;;
41077;SDS011;26823;42.662;23.352;2022-11-25T02:02:21;2.65;;;1.85;;
41077;SDS011;26823;42.662;23.352;2022-11-25T02:04:47;3.42;;;1.70;;
41077;SDS011;26823;42.662;23.352;2022-11-25T02:07:17;1.80;;;1.70;;
41077;SDS011;26823;42.662;23.352;2022-11-25T02:09:48;2.00;;;1.73;;
41077;SDS011;26823;42.662;23.352;2022-11-25T02:12:15;2.75;;;2.10;;
41077;SDS011;26823;42.662;23.352;2022-11-25T02:14:43;2.50;;;1.98;;
41077;SDS011;26823;42.662;23.352;2022-11-25T02:17:10;2.33;;;1.98;;
41077;SDS011;26823;42.662;23.352;2022-11-25T02:22:04;1.77;;;1.67;;
41077;SDS011;26823;42.662;23.352;2022-11-25T02:24:44;3.63;;;2.00;;
41077;SDS011;26823;42.662;23.352;2022-11-25T02:27:12;2.13;;;1.80;;
41077;SDS011;26823;42.662;23.352;2022-11-25T02:29:37;1.70;;;1.60;;
41077;SDS011;26823;42.662;23.352;2022-11-25T02:32:04;2.15;;;1.90;;
41077;SDS011;26823;42.662;23.352;2022-11-25T02:34:30;1.67;;;1.55;;
41077;SDS011;26823;42.662;23.352;2022-11-25T02:36:55;3.85;;;1.60;;
41077;SDS011;26823;42.662;23.352;2022-11-25T02:39:21;1.65;;;1.55;;
41077;SDS011;26823;42.662;23.352;2022-11-25T02:41:48;1.67;;;1.35;;
41077;SDS011;26823;42.662;23.352;2022-11-25T02:44:18;2.60;;;1.77;;
41077;SDS011;26823;42.662;23.352;2022-11-25T02:46:44;2.05;;;1.55;;
41077;SDS011;26823;42.662;23.352;2022-11-25T02:49:10;2.40;;;1.73;;
41077;SDS011;26823;42.662;23.352;2022-11-25T02:51:36;3.83;;;1.92;;
41077;SDS011;26823;42.662;23.352;2022-11-25T02:54:03;3.58;;;2.15;;
41077;SDS011;26823;42.662;23.352;2022-11-25T02:56:30;1.92;;;1.70;;
41077;SDS011;26823;42.662;23.352;2022-11-25T02:58:57;1.77;;;1.63;;
41077;SDS011;26823;42.662;23.352;2022-11-25T03:01:23;2.22;;;1.83;;
41077;SDS011;26823;42.662;23.352;2022-11-25T03:03:48;2.20;;;1.67;;
41077;SDS011;26823;42.662;23.352;2022-11-25T03:06:14;3.13;;;1.65;;
41077;SDS011;26823;42.662;23.352;2022-11-25T03:08:39;1.80;;;1.63;;
41077;SDS011;26823;42.662;23.352;2022-11-25T03:11:05;2.67;;;1.98;;
41077;SDS011;26823;42.662;23.352;2022-11-25T03:13:31;3.72;;;2.00;;
41077;SDS011;26823;42.662;23.352;2022-11-25T03:15:57;2.03;;;1.83;;
41077;SDS011;26823;42.662;23.352;2022-11-25T03:18:23;1.95;;;1.83;;
41077;SDS011;26823;42.662;23.352;2022-11-25T03:20:52;1.73;;;1.58;;
41077;SDS011;26823;42.662;23.352;2022-11-25T03:23:19;2.30;;;1.90;;
41077;SDS011;26823;42.662;23.352;2022-11-25T03:25:44;4.10;;;1.98;;
41077;SDS011;26823;42.662;23.352;2022-11-25T03:28:10;2.25;;;1.80;;
41077;SDS011;26823;42.662;23.352;2022-11-25T03:30:35;2.50;;;1.98;;
41077;SDS011;26823;42.662;23.352;2022-11-25T03:33:01;2.75;;;2.17;;
41077;SDS011;26823;42.662;23.352;2022-11-25T03:35:26;2.58;;;2.00;;
41077;SDS011;26823;42.662;23.352;2022-11-25T03:37:52;2.33;;;2.08;;
41077;SDS011;26823;42.662;23.352;2022-11-25T03:40:17;2.83;;;2.30;;
41077;SDS011;26823;42.662;23.352;2022-11-25T03:42:43;2.25;;;2.05;;
41077;SDS011;26823;42.662;23.352;2022-11-25T03:45:09;2.25;;;2.05;;
41077;SDS011;26823;42.662;23.352;2022-11-25T03:47:37;3.33;;;2.00;;
41077;SDS011;26823;42.662;23.352;2022-11-25T03:50:03;3.40;;;2.50;;
41077;SDS011;26823;42.662;23.352;2022-11-25T03:52:29;3.92;;;2.40;;
41077;SDS011;26823;42.662;23.352;2022-11-25T03:54:54;3.30;;;2.30;;
41077;SDS011;26823;42.662;23.352;2022-11-25T03:57:20;7.07;;;2.70;;
41077;SDS011;26823;42.662;23.352;2022-11-25T03:59:45;3.25;;;2.30;;
41077;SDS011;26823;42.662;23.352;2022-11-25T04:02:11;3.08;;;1.92;;
41077;SDS011;26823;42.662;23.352;2022-11-25T04:04:36;2.20;;;2.00;;
41077;SDS011;26823;42.662;23.352;2022-11-25T04:07:02;3.10;;;2.28;;
41077;SDS011;26823;42.662;23.352;2022-11-25T04:09:28;2.38;;;2.05;;
41077;SDS011;26823;42.662;23.352;2022-11-25T04:11:53;1.80;;;1.60;;
41077;SDS011;26823;42.662;23.352;2022-11-25T04:14:37;2.20;;;2.00;;
41077;SDS011;26823;42.662;23.352;2022-11-25T04:17:02;5.03;;;1.98;;
41077;SDS011;26823;42.662;23.352;2022-11-25T04:19:28;2.58;;;2.08;;
41077;SDS011;26823;42.662;23.352;2022-11-25T04:21:53;2.38;;;2.17;;
41077;SDS011;26823;42.662;23.352;2022-11-25T04:24:19;3.78;;;1.83;;
41077;SDS011;26823;42.662;23.352;2022-11-25T04:26:44;2.22;;;1.65;;
41077;SDS011;26823;42.662;23.352;2022-11-25T04:29:10;2.20;;;2.00;;
41077;SDS011;26823;42.662;23.352;2022-11-25T04:31:35;2.15;;;1.50;;
41077;SDS011;26823;42.662;23.352;2022-11-25T04:34:02;2.30;;;2.10;;
41077;SDS011;26823;42.662;23.352;2022-11-25T04:36:28;2.20;;;1.88;;
41077;SDS011;26823;42.662;23.352;2022-11-25T04:38:53;2.03;;;1.85;;
41077;SDS011;26823;42.662;23.352;2022-11-25T04:41:19;2.40;;;1.83;;
41077;SDS011;26823;42.662;23.352;2022-11-25T04:43:44;2.65;;;2.03;;
41077;SDS011;26823;42.662;23.352;2022-11-25T04:46:13;1.73;;;1.63;;
41077;SDS011;26823;42.662;23.352;2022-11-25T04:48:41;2.17;;;1.80;;
41077;SDS011;26823;42.662;23.352;2022-11-25T04:51:06;1.73;;;1.60;;
41077;SDS011;26823;42.662;23.352;2022-11-25T04:53:32;2.15;;;1.63;;
41077;SDS011;26823;42.662;23.352;2022-11-25T04:55:57;2.13;;;1.83;;
41077;SDS011;26823;42.662;23.352;2022-11-25T04:58:23;2.45;;;2.00;;
41077;SDS011;26823;42.662;23.352;2022-11-25T05:01:17;2.53;;;1.97;;
41077;SDS011;26823;42.662;23.352;2022-11-25T05:03:42;2.17;;;1.80;;
41077;SDS011;26823;42.662;23.352;2022-11-25T05:06:08;2.20;;;2.00;;
41077;SDS011;26823;42.662;23.352;2022-11-25T05:08:34;2.40;;;1.83;;
41077;SDS011;26823;42.662;23.352;2022-11-25T05:11:00;1.98;;;1.83;;
41077;SDS011;26823;42.662;23.352;2022-11-25T05:13:26;2.60;;;2.30;;
41077;SDS011;26823;42.662;23.352;2022-11-25T05:15:51;2.50;;;1.98;;
41077;SDS011;26823;42.662;23.352;2022-11-25T05:18:17;1.73;;;1.60;;
41077;SDS011;26823;42.662;23.352;2022-11-25T05:20:42;2.72;;;1.70;;
41077;SDS011;26823;42.662;23.352;2022-11-25T05:23:08;2.15;;;1.80;;
41077;SDS011;26823;42.662;23.352;2022-11-25T05:25:33;2.15;;;1.92;;
41077;SDS011;26823;42.662;23.352;2022-11-25T05:27:59;2.15;;;1.95;;
41077;SDS011;26823;42.662;23.352;2022-11-25T05:30:24;2.17;;;1.98;;
41077;SDS011;26823;42.662;23.352;2022-11-25T05:32:50;4.03;;;1.92;;
41077;SDS011;26823;42.662;23.352;2022-11-25T05:35:15;1.95;;;1.85;;
41077;SDS011;26823;42.662;23.352;2022-11-25T05:37:41;2.40;;;1.90;;
41077;SDS011;26823;42.662;23.352;2022-11-25T05:40:08;1.60;;;1.50;;
41077;SDS011;26823;42.662;23.352;2022-11-25T05:42:33;2.33;;;1.70;;
41077;SDS011;26823;42.662;23.352;2022-11-25T05:44:59;2.38;;;1.60;;
41077;SDS011;26823;42.662;23.352;2022-11-25T05:47:25;1.55;;;1.45;;
41077;SDS011;26823;42.662;23.352;2022-11-25T05:49:51;2.13;;;1.75;;
41077;SDS011;26823;42.662;23.352;2022-11-25T05:52:16;2.95;;;1.70;;
41077;SDS011;26823;42.662;23.352;2022-11-25T05:54:42;2.88;;;1.90;;
41077;SDS011;26823;42.662;23.352;2022-11-25T05:57:07;3.70;;;1.65;;
41077;SDS011;26823;42.662;23.352;2022-11-25T05:59:32;3.15;;;1.58;;
41077;SDS011;26823;42.662;23.352;2022-11-25T06:01:58;2.30;;;1.98;;
41077;SDS011;26823;42.662;23.352;2022-11-25T06:04:23;2.92;;;1.40;;
41077;SDS011;26823;42.662;23.352;2022-11-25T06:06:49;2.47;;;1.55;;
41077;SDS011;26823;42.662;23.352;2022-11-25T06:09:21;1.77;;;1.60;;
41077;SDS011;26823;42.662;23.352;2022-11-25T06:11:46;2.13;;;1.92;;
41077;SDS011;26823;42.662;23.352;2022-11-25T06:14:12;3.75;;;1.80;;
41077;SDS011;26823;42.662;23.352;2022-11-25T06:16:37;1.75;;;1.65;;
41077;SDS011;26823;42.662;23.352;2022-11-25T06:19:04;1.95;;;1.65;;
41077;SDS011;26823;42.662;23.352;2022-11-25T06:21:30;2.65;;;1.73;;
41077;SDS011;26823;42.662;23.352;2022-11-25T06:23:56;2.15;;;1.83;;
41077;SDS011;26823;42.662;23.352;2022-11-25T06:26:22;6.07;;;4.03;;
41077;SDS011;26823;42.662;23.352;2022-11-25T06:28:50;5.95;;;4.70;;
41077;SDS011;26823;42.662;23.352;2022-11-25T06:31:18;5.22;;;2.08;;
41077;SDS011;26823;42.662;23.352;2022-11-25T06:33:46;2.63;;;2.10;;
41077;SDS011;26823;42.662;23.352;2022-11-25T06:36:12;3.65;;;1.88;;
41077;SDS011;26823;42.662;23.352;2022-11-25T06:38:45;2.15;;;1.83;;
41077;SDS011;26823;42.662;23.352;2022-11-25T06:41:12;2.10;;;1.90;;
41077;SDS011;26823;42.662;23.352;2022-11-25T06:43:38;16.05;;;2.50;;
41077;SDS011;26823;42.662;23.352;2022-11-25T06:46:04;5.50;;;2.05;;
41077;SDS011;26823;42.662;23.352;2022-11-25T06:48:35;2.72;;;2.10;;
41077;SDS011;26823;42.662;23.352;2022-11-25T06:51:02;2.53;;;2.22;;
41077;SDS011;26823;42.662;23.352;2022-11-25T06:53:30;2.47;;;2.13;;
41077;SDS011;26823;42.662;23.352;2022-11-25T06:58:43;2.45;;;2.10;;
41077;SDS011;26823;42.662;23.352;2022-11-25T07:03:39;2.25;;;2.00;;
41077;SDS011;26823;42.662;23.352;2022-11-25T07:06:06;2.28;;;2.03;;
41077;SDS011;26823;42.662;23.352;2022-11-25T07:08:32;4.80;;;2.17;;
41077;SDS011;26823;42.662;23.352;2022-11-25T07:11:04;4.97;;;2.83;;
41077;SDS011;26823;42.662;23.352;2022-11-25T07:13:32;3.25;;;2.17;;
41077;SDS011;26823;42.662;23.352;2022-11-25T07:16:01;2.92;;;2.20;;
41077;SDS011;26823;42.662;23.352;2022-11-25T07:18:32;2.25;;;2.05;;
41077;SDS011;26823;42.662;23.352;2022-11-25T07:21:08;2.40;;;2.15;;
41077;SDS011;26823;42.662;23.352;2022-11-25T07:23:35;2.95;;;2.45;;
41077;SDS011;26823;42.662;23.352;2022-11-25T07:26:05;3.67;;;2.13;;
41077;SDS011;26823;42.662;23.352;2022-11-25T07:28:39;2.30;;;1.95;;
41077;SDS011;26823;42.662;23.352;2022-11-25T07:33:40;3.15;;;2.30;;
41077;SDS011;26823;42.662;23.352;2022-11-25T07:36:07;2.90;;;2.42;;
41077;SDS011;26823;42.662;23.352;2022-11-25T07:38:36;3.00;;;2.05;;
41077;SDS011;26823;42.662;23.352;2022-11-25T07:41:21;2.70;;;2.45;;
41077;SDS011;26823;42.662;23.352;2022-11-25T07:43:52;3.65;;;2.92;;
41077;SDS011;26823;42.662;23.352;2022-11-25T07:46:24;5.70;;;3.35;;
41077;SDS011;26823;42.662;23.352;2022-11-25T07:48:52;3.70;;;2.08;;
41077;SDS011;26823;42.662;23.352;2022-11-25T07:53:46;3.45;;;2.47;;
41077;SDS011;26823;42.662;23.352;2022-11-25T07:56:12;4.78;;;2.65;;
41077;SDS011;26823;42.662;23.352;2022-11-25T07:58:39;2.92;;;2.30;;
41077;SDS011;26823;42.662;23.352;2022-11-25T08:01:06;2.50;;;2.30;;
41077;SDS011;26823;42.662;23.352;2022-11-25T08:03:33;2.67;;;2.42;;
41077;SDS011;26823;42.662;23.352;2022-11-25T08:06:04;4.57;;;2.70;;
41077;SDS011;26823;42.662;23.352;2022-11-25T08:08:32;3.53;;;2.13;;
41077;SDS011;26823;42.662;23.352;2022-11-25T08:10:58;2.40;;;2.20;;
41077;SDS011;26823;42.662;23.352;2022-11-25T08:13:23;3.90;;;2.38;;
41077;SDS011;26823;42.662;23.352;2022-11-25T08:15:49;3.47;;;2.30;;
41077;SDS011;26823;42.662;23.352;2022-11-25T08:18:15;2.95;;;2.15;;
41077;SDS011;26823;42.662;23.352;2022-11-25T08:20:41;2.88;;;2.58;;
41077;SDS011;26823;42.662;23.352;2022-11-25T08:23:07;5.20;;;2.60;;
41077;SDS011;26823;42.662;23.352;2022-11-25T08:25:32;3.42;;;2.28;;
41077;SDS011;26823;42.662;23.352;2022-11-25T08:28:02;4.25;;;3.10;;
41077;SDS011;26823;42.662;23.352;2022-11-25T08:30:28;3.00;;;2.40;;
41077;SDS011;26823;42.662;23.352;2022-11-25T08:32:53;2.35;;;2.15;;
41077;SDS011;26823;42.662;23.352;2022-11-25T08:35:19;2.15;;;1.98;;
41077;SDS011;26823;42.662;23.352;2022-11-25T08:37:44;5.05;;;3.25;;
41077;SDS011;26823;42.662;23.352;2022-11-25T08:40:10;6.75;;;2.30;;
41077;SDS011;26823;42.662;23.352;2022-11-25T08:42:36;3.10;;;2.63;;
41077;SDS011;26823;42.662;23.352;2022-11-25T08:45:02;3.30;;;2.72;;
41077;SDS011;26823;42.662;23.352;2022-11-25T08:47:29;3.85;;;2.67;;
41077;SDS011;26823;42.662;23.352;2022-11-25T08:49:55;2.55;;;2.35;;
41077;SDS011;26823;42.662;23.352;2022-11-25T08:52:21;3.83;;;2.55;;
41077;SDS011;26823;42.662;23.352;2022-11-25T08:54:46;2.15;;;1.92;;
41077;SDS011;26823;42.662;23.352;2022-11-25T08:57:12;3.33;;;2.30;;
41077;SDS011;26823;42.662;23.352;2022-11-25T08:59:38;3.03;;;2.38;;
41077;SDS011;26823;42.662;23.352;2022-11-25T09:02:04;4.93;;;2.38;;
41077;SDS011;26823;42.662;23.352;2022-11-25T09:04:30;2.75;;;2.50;;
41077;SDS011;26823;42.662;23.352;2022-11-25T09:06:56;3.90;;;2.90;;
41077;SDS011;26823;42.662;23.352;2022-11-25T09:09:21;6.30;;;2.80;;
41077;SDS011;26823;42.662;23.352;2022-11-25T09:11:47;4.82;;;2.50;;
41077;SDS011;26823;42.662;23.352;2022-11-25T09:14:12;3.35;;;2.95;;
41077;SDS011;26823;42.662;23.352;2022-11-25T09:16:38;3.47;;;2.67;;
41077;SDS011;26823;42.662;23.352;2022-11-25T09:19:03;3.72;;;2.90;;
41077;SDS011;26823;42.662;23.352;2022-11-25T09:21:30;3.95;;;2.75;;
41077;SDS011;26823;42.662;23.352;2022-11-25T09:23:56;2.50;;;2.25;;
41077;SDS011;26823;42.662;23.352;2022-11-25T09:26:22;5.65;;;2.70;;
41077;SDS011;26823;42.662;23.352;2022-11-25T09:28:50;3.95;;;2.80;;
41077;SDS011;26823;42.662;23.352;2022-11-25T09:31:16;3.17;;;2.28;;
41077;SDS011;26823;42.662;23.352;2022-11-25T09:33:42;4.72;;;3.30;;
41077;SDS011;26823;42.662;23.352;2022-11-25T09:36:08;3.65;;;2.63;;
41077;SDS011;26823;42.662;23.352;2022-11-25T09:38:36;2.75;;;2.50;;
41077;SDS011;26823;42.662;23.352;2022-11-25T09:54:32;3.08;;;2.47;;
41077;SDS011;26823;42.662;23.352;2022-11-25T09:57:16;5.68;;;2.20;;
41077;SDS011;26823;42.662;23.352;2022-11-25T09:59:45;4.53;;;2.42;;
41077;SDS011;26823;42.662;23.352;2022-11-25T10:07:46;5.30;;;2.28;;
41077;SDS011;26823;42.662;23.352;2022-11-25T10:10:23;4.93;;;3.00;;
41077;SDS011;26823;42.662;23.352;2022-11-25T10:12:50;3.05;;;2.50;;
41077;SDS011;26823;42.662;23.352;2022-11-25T10:15:29;2.50;;;2.30;;
41077;SDS011;26823;42.662;23.352;2022-11-25T10:18:00;2.80;;;2.35;;
41077;SDS011;26823;42.662;23.352;2022-11-25T10:20:29;2.83;;;2.50;;
41077;SDS011;26823;42.662;23.352;2022-11-25T10:22:59;4.70;;;2.50;;
41077;SDS011;26823;42.662;23.352;2022-11-25T10:25:37;3.80;;;3.08;;
41077;SDS011;26823;42.662;23.352;2022-11-25T10:28:15;5.18;;;2.20;;
41077;SDS011;26823;42.662;23.352;2022-11-25T10:30:51;2.28;;;2.13;;
41077;SDS011;26823;42.662;23.352;2022-11-25T10:38:30;7.55;;;2.88;;
41077;SDS011;26823;42.662;23.352;2022-11-25T10:41:03;5.55;;;1.75;;
41077;SDS011;26823;42.662;23.352;2022-11-25T10:43:30;2.83;;;2.42;;
41077;SDS011;26823;42.662;23.352;2022-11-25T10:51:51;1.85;;;1.58;;
41077;SDS011;26823;42.662;23.352;2022-11-25T10:54:17;2.78;;;1.70;;
41077;SDS011;26823;42.662;23.352;2022-11-25T10:56:47;3.30;;;1.60;;
41077;SDS011;26823;42.662;23.352;2022-11-25T11:01:51;1.77;;;1.55;;
41077;SDS011;26823;42.662;23.352;2022-11-25T11:04:17;3.03;;;1.75;;
41077;SDS011;26823;42.662;23.352;2022-11-25T11:06:45;2.42;;;1.73;;
41077;SDS011;26823;42.662;23.352;2022-11-25T11:09:28;3.92;;;1.80;;
41077;SDS011;26823;42.662;23.352;2022-11-25T11:12:49;3.20;;;1.70;;
41077;SDS011;26823;42.662;23.352;2022-11-25T11:14:54;3.30;;;1.85;;
41077;SDS011;26823;42.662;23.352;2022-11-25T11:17:40;5.28;;;2.25;;
41077;SDS011;26823;42.662;23.352;2022-11-25T11:22:31;4.95;;;2.50;;
41077;SDS011;26823;42.662;23.352;2022-11-25T11:27:37;4.50;;;2.63;;
41077;SDS011;26823;42.662;23.352;2022-11-25T11:30:07;2.35;;;2.15;;
41077;SDS011;26823;42.662;23.352;2022-11-25T11:32:34;3.42;;;2.50;;
41077;SDS011;26823;42.662;23.352;2022-11-25T11:35:08;3.95;;;2.45;;
41077;SDS011;26823;42.662;23.352;2022-11-25T11:37:46;4.45;;;2.60;;
41077;SDS011;26823;42.662;23.352;2022-11-25T11:40:20;4.82;;;2.65;;
41077;SDS011;26823;42.662;23.352;2022-11-25T11:50:39;4.18;;;2.60;;
41077;SDS011;26823;42.662;23.352;2022-11-25T12:06:22;3.72;;;2.80;;
41077;SDS011;26823;42.662;23.352;2022-11-25T12:08:55;3.50;;;2.75;;
41077;SDS011;26823;42.662;23.352;2022-11-25T12:11:29;4.90;;;2.35;;
41077;SDS011;26823;42.662;23.352;2022-11-25T12:16:47;2.50;;;2.30;;
41077;SDS011;26823;42.662;23.352;2022-11-25T12:19:29;4.60;;;2.85;;
41077;SDS011;26823;42.662;23.352;2022-11-25T12:22:07;2.58;;;2.20;;
41077;SDS011;26823;42.662;23.352;2022-11-25T12:27:26;3.40;;;2.47;;
41077;SDS011;26823;42.662;23.352;2022-11-25T12:30:17;3.08;;;2.30;;
41077;SDS011;26823;42.662;23.352;2022-11-25T12:47:09;3.28;;;2.25;;
41077;SDS011;26823;42.662;23.352;2022-11-25T12:49:42;2.72;;;2.20;;
41077;SDS011;26823;42.662;23.352;2022-11-25T13:02:45;5.15;;;2.25;;
41077;SDS011;26823;42.662;23.352;2022-11-25T13:17:08;2.40;;;2.20;;
41077;SDS011;26823;42.662;23.352;2022-11-25T13:19:37;2.85;;;2.30;;
41077;SDS011;26823;42.662;23.352;2022-11-25T13:24:37;3.13;;;2.17;;
41077;SDS011;26823;42.662;23.352;2022-11-25T13:27:04;4.00;;;2.88;;
41077;SDS011;26823;42.662;23.352;2022-11-25T13:29:51;4.53;;;3.00;;
41077;SDS011;26823;42.662;23.352;2022-11-25T13:32:31;4.15;;;3.03;;
41077;SDS011;26823;42.662;23.352;2022-11-25T13:37:45;3.20;;;2.83;;
41077;SDS011;26823;42.662;23.352;2022-11-25T13:42:54;4.43;;;3.17;;
41077;SDS011;26823;42.662;23.352;2022-11-25T13:45:35;4.15;;;2.95;;
41077;SDS011;26823;42.662;23.352;2022-11-25T13:48:11;4.03;;;2.88;;
41077;SDS011;26823;42.662;23.352;2022-11-25T13:50:42;3.33;;;2.80;;
41077;SDS011;26823;42.662;23.352;2022-11-25T13:56:11;3.75;;;2.97;;
41077;SDS011;26823;42.662;23.352;2022-11-25T13:58:39;5.50;;;3.97;;
41077;SDS011;26823;42.662;23.352;2022-11-25T14:04:12;4.40;;;3.20;;
41077;SDS011;26823;42.662;23.352;2022-11-25T14:12:28;5.70;;;3.83;;
41077;SDS011;26823;42.662;23.352;2022-11-25T14:20:38;6.50;;;4.07;;
41077;SDS011;26823;42.662;23.352;2022-11-25T14:25:48;8.43;;;3.60;;
41077;SDS011;26823;42.662;23.352;2022-11-25T14:31:04;6.35;;;4.65;;
41077;SDS011;26823;42.662;23.352;2022-11-25T14:33:35;7.03;;;3.97;;
41077;SDS011;26823;42.662;23.352;2022-11-25T14:36:08;5.57;;;4.38;;
41077;SDS011;26823;42.662;23.352;2022-11-25T14:38:52;4.43;;;3.78;;
41077;SDS011;26823;42.662;23.352;2022-11-25T14:41:43;5.78;;;4.22;;
41077;SDS011;26823;42.662;23.352;2022-11-25T14:44:17;6.80;;;4.35;;
41077;SDS011;26823;42.662;23.352;2022-11-25T14:46:51;6.60;;;4.72;;
41077;SDS011;26823;42.662;23.352;2022-11-25T14:49:22;6.75;;;4.75;;
41077;SDS011;26823;42.662;23.352;2022-11-25T14:51:49;11.77;;;4.68;;
41077;SDS011;26823;42.662;23.352;2022-11-25T14:54:18;11.57;;;4.55;;
41077;SDS011;26823;42.662;23.352;2022-11-25T14:56:45;6.95;;;4.43;;
41077;SDS011;26823;42.662;23.352;2022-11-25T14:59:13;6.85;;;4.50;;
41077;SDS011;26823;42.662;23.352;2022-11-25T15:01:39;6.68;;;4.35;;
41077;SDS011;26823;42.662;23.352;2022-11-25T15:04:17;8.75;;;5.10;;
41077;SDS011;26823;42.662;23.352;2022-11-25T15:06:52;6.60;;;4.68;;
41077;SDS011;26823;42.662;23.352;2022-11-25T15:09:25;7.72;;;4.88;;
41077;SDS011;26823;42.662;23.352;2022-11-25T15:12:10;9.23;;;5.00;;
41077;SDS011;26823;42.662;23.352;2022-11-25T15:14:40;7.32;;;5.15;;
41077;SDS011;26823;42.662;23.352;2022-11-25T15:17:08;7.30;;;4.40;;
41077;SDS011;26823;42.662;23.352;2022-11-25T15:19:48;7.10;;;4.93;;
41077;SDS011;26823;42.662;23.352;2022-11-25T15:22:14;6.90;;;4.75;;
41077;SDS011;26823;42.662;23.352;2022-11-25T15:24:45;8.05;;;5.38;;
41077;SDS011;26823;42.662;23.352;2022-11-25T15:29:41;9.23;;;4.18;;
41077;SDS011;26823;42.662;23.352;2022-11-25T15:32:08;5.88;;;4.18;;
41077;SDS011;26823;42.662;23.352;2022-11-25T15:34:40;6.43;;;4.07;;
41077;SDS011;26823;42.662;23.352;2022-11-25T15:37:09;5.10;;;3.85;;
41077;SDS011;26823;42.662;23.352;2022-11-25T15:39:36;4.38;;;3.90;;
41077;SDS011;26823;42.662;23.352;2022-11-25T15:42:04;4.47;;;3.47;;
41077;SDS011;26823;42.662;23.352;2022-11-25T15:44:32;9.90;;;6.18;;
41077;SDS011;26823;42.662;23.352;2022-11-25T15:49:40;4.00;;;3.60;;
41077;SDS011;26823;42.662;23.352;2022-11-25T15:52:15;5.90;;;3.65;;
41077;SDS011;26823;42.662;23.352;2022-11-25T15:54:44;5.93;;;3.83;;
41077;SDS011;26823;42.662;23.352;2022-11-25T16:10:21;6.05;;;4.47;;
41077;SDS011;26823;42.662;23.352;2022-11-25T16:18:21;4.75;;;2.85;;
41077;SDS011;26823;42.662;23.352;2022-11-25T16:20:55;3.97;;;3.00;;
41077;SDS011;26823;42.662;23.352;2022-11-25T16:23:24;3.58;;;2.92;;
41077;SDS011;26823;42.662;23.352;2022-11-25T16:28:20;12.65;;;3.33;;
41077;SDS011;26823;42.662;23.352;2022-11-25T16:30:46;2.92;;;2.50;;
41077;SDS011;26823;42.662;23.352;2022-11-25T16:33:12;3.95;;;2.22;;
41077;SDS011;26823;42.662;23.352;2022-11-25T16:35:38;7.43;;;2.40;;
41077;SDS011;26823;42.662;23.352;2022-11-25T16:38:04;3.47;;;2.38;;
41077;SDS011;26823;42.662;23.352;2022-11-25T16:40:29;5.82;;;2.05;;
41077;SDS011;26823;42.662;23.352;2022-11-25T16:42:54;3.08;;;2.30;;
41077;SDS011;26823;42.662;23.352;2022-11-25T16:45:21;2.67;;;2.10;;
41077;SDS011;26823;42.662;23.352;2022-11-25T16:47:48;4.45;;;2.58;;
41077;SDS011;26823;42.662;23.352;2022-11-25T16:50:20;3.83;;;2.28;;
41077;SDS011;26823;42.662;23.352;2022-11-25T16:52:46;2.88;;;2.38;;
41077;SDS011;26823;42.662;23.352;2022-11-25T16:55:11;3.47;;;2.53;;
41077;SDS011;26823;42.662;23.352;2022-11-25T16:57:38;2.88;;;2.20;;
41077;SDS011;26823;42.662;23.352;2022-11-25T17:00:06;2.60;;;2.40;;
41077;SDS011;26823;42.662;23.352;2022-11-25T17:02:36;3.17;;;2.70;;
41077;SDS011;26823;42.662;23.352;2022-11-25T17:05:13;2.97;;;2.67;;
41077;SDS011;26823;42.662;23.352;2022-11-25T17:07:39;3.17;;;2.42;;
41077;SDS011;26823;42.662;23.352;2022-11-25T17:10:05;3.60;;;2.65;;
41077;SDS011;26823;42.662;23.352;2022-11-25T17:12:32;4.28;;;2.45;;
41077;SDS011;26823;42.662;23.352;2022-11-25T17:14:59;4.05;;;2.15;;
41077;SDS011;26823;42.662;23.352;2022-11-25T17:17:28;3.42;;;2.45;;
41077;SDS011;26823;42.662;23.352;2022-11-25T17:19:54;2.22;;;2.00;;
41077;SDS011;26823;42.662;23.352;2022-11-25T17:22:24;2.97;;;2.65;;
41077;SDS011;26823;42.662;23.352;2022-11-25T17:24:50;2.55;;;2.35;;
41077;SDS011;26823;42.662;23.352;2022-11-25T17:27:18;2.45;;;2.05;;
41077;SDS011;26823;42.662;23.352;2022-11-25T17:29:48;3.15;;;2.38;;
41077;SDS011;26823;42.662;23.352;2022-11-25T17:32:15;6.53;;;2.28;;
41077;SDS011;26823;42.662;23.352;2022-11-25T17:34:40;3.97;;;2.95;;
41077;SDS011;26823;42.662;23.352;2022-11-25T17:37:11;2.88;;;2.38;;